Time;durP1;ratioP1;P1;durP2;ratioP2;P2;SDS_P1;SDS_P2;PMS_P1;PMS_P2;Temp;Humidity;BMP_temperature;BMP_pressure;BME280_temperature;BME280_humidity;BME280_pressure;Samples;Min_cycle;Max_cycle;Signal;HPM_P1;HPM_P2
2022/01/26 00:00:03;;;;;;;;;47.00;38.75;;;;;2.42;74.23;102859.63;5041483;28;45423;-56
2022/01/26 00:07:56;;;;;;;;;35.50;35.00;;;;;2.28;74.10;102866.44;5076437;28;45713;-58
2022/01/26 00:10:23;;;;;;;;;51.75;33.50;;;;;2.23;74.57;102873.38;5076794;28;45370;-58
2022/01/26 00:12:48;;;;;;;;;42.25;36.00;;;;;2.24;74.61;102860.25;5076493;28;45389;-58
2022/01/26 00:15:14;;;;;;;;;36.75;34.50;;;;;2.23;75.30;102863.75;5075238;27;45561;-55
2022/01/26 00:17:40;;;;;;;;;53.50;38.25;;;;;2.24;75.20;102862.88;5076622;27;45321;-56
2022/01/26 00:27:48;;;;;;;;;35.75;33.25;;;;;2.43;75.00;102866.63;5076644;27;46013;-57
2022/01/26 00:38:39;;;;;;;;;36.75;33.75;;;;;2.42;75.22;102879.75;5075769;28;45457;-58
2022/01/26 00:41:10;;;;;;;;;45.25;36.50;;;;;2.47;75.40;102876.31;5076394;28;45288;-56
2022/01/26 00:43:38;;;;;;;;;45.75;37.00;;;;;2.48;74.58;102880.75;5075168;28;45350;-57
2022/01/26 00:46:06;;;;;;;;;29.25;21.25;;;;;2.38;75.38;102883.22;5076837;28;45255;-54
2022/01/26 00:48:33;;;;;;;;;37.25;32.25;;;;;2.20;75.88;102852.28;5073344;28;45513;-56
2022/01/26 00:51:03;;;;;;;;;50.50;34.75;;;;;2.25;76.37;102867.28;5074803;28;45481;-57
2022/01/26 00:53:34;;;;;;;;;49.75;38.75;;;;;2.31;75.94;102862.09;5076129;28;45438;-56
2022/01/26 00:56:00;;;;;;;;;39.00;27.25;;;;;2.48;76.01;102874.59;5071747;27;45313;-57
2022/01/26 00:58:26;;;;;;;;;39.25;31.25;;;;;2.37;74.77;102861.31;5064609;28;45443;-55
2022/01/26 01:00:53;;;;;;;;;32.75;27.25;;;;;2.47;75.46;102867.56;5075850;28;45431;-56
2022/01/26 01:03:19;;;;;;;;;40.75;32.25;;;;;2.57;75.31;102872.06;5075500;27;45448;-58
2022/01/26 01:05:54;;;;;;;;;29.25;23.75;;;;;2.65;74.96;102862.56;5074829;28;45481;-59
2022/01/26 01:08:22;;;;;;;;;37.50;34.25;;;;;2.69;74.96;102868.72;5072836;28;46209;-57
2022/01/26 01:10:50;;;;;;;;;41.75;33.75;;;;;2.71;74.69;102867.88;5073840;28;45518;-57
2022/01/26 01:13:19;;;;;;;;;37.75;33.50;;;;;2.75;73.52;102859.19;5074216;28;45380;-57
2022/01/26 01:15:46;;;;;;;;;36.50;32.50;;;;;2.76;73.69;102855.72;5074079;28;45472;-58
2022/01/26 01:23:33;;;;;;;;;35.75;30.25;;;;;2.77;73.02;102851.34;5077213;28;45299;-58
2022/01/26 01:26:36;;;;;;;;;31.50;29.25;;;;;2.86;73.47;102868.06;5077786;27;45464;-59
2022/01/26 01:31:47;;;;;;;;;30.25;26.00;;;;;2.70;72.93;102876.63;5063314;28;45529;-58
2022/01/26 01:34:17;;;;;;;;;35.00;26.50;;;;;2.63;73.24;102869.56;5071952;28;45479;-59
2022/01/26 01:36:45;;;;;;;;;33.50;29.75;;;;;2.75;72.98;102874.97;5079116;27;45348;-60
2022/01/26 01:39:11;;;;;;;;;40.75;32.75;;;;;2.76;72.82;102870.59;5078918;27;46069;-54
2022/01/26 01:41:42;;;;;;;;;35.50;29.75;;;;;2.71;73.44;102867.88;5078010;28;45537;-61
2022/01/26 01:44:08;;;;;;;;;41.75;33.75;;;;;2.76;73.02;102876.72;5079097;28;45419;-59
2022/01/26 01:46:34;;;;;;;;;30.00;30.00;;;;;2.80;72.75;102878.53;5078218;27;45218;-59
2022/01/26 01:49:02;;;;;;;;;36.00;32.50;;;;;2.69;72.19;102864.34;5078261;27;45469;-61
2022/01/26 01:51:37;;;;;;;;;35.25;27.75;;;;;2.56;72.72;102878.19;5071811;28;45302;-62
2022/01/26 01:54:04;;;;;;;;;40.50;32.25;;;;;2.58;72.93;102871.22;5077845;28;45306;-66
2022/01/26 01:56:30;;;;;;;;;36.50;24.50;;;;;2.54;72.89;102886.06;5067968;27;45526;-65
2022/01/26 01:58:58;;;;;;;;;42.75;32.25;;;;;2.43;72.86;102884.13;5070413;28;45452;-65
2022/01/26 02:01:25;;;;;;;;;37.75;31.50;;;;;2.48;72.94;102886.00;5078114;27;45218;-61
2022/01/26 02:03:51;;;;;;;;;34.75;30.75;;;;;2.54;73.39;102891.31;5075073;27;45436;-62
2022/01/26 02:06:17;;;;;;;;;38.75;30.75;;;;;2.66;72.82;102894.09;5078457;28;45495;-61
2022/01/26 02:08:43;;;;;;;;;24.25;23.00;;;;;2.69;72.49;102882.75;5078292;27;46926;-62
2022/01/26 02:11:11;;;;;;;;;31.75;22.25;;;;;2.69;71.95;102885.38;5078446;28;45674;-62
2022/01/26 02:13:42;;;;;;;;;35.75;23.25;;;;;2.62;71.59;102888.81;5078203;28;45403;-62
2022/01/26 02:16:25;;;;;;;;;32.00;27.00;;;;;2.59;72.53;102886.09;5078555;27;45484;-62
2022/01/26 02:49:19;;;;;;;;;39.25;31.50;;;;;2.65;72.64;102888.84;5078270;28;45357;-62
2022/01/26 03:02:00;;;;;;;;;37.00;30.50;;;;;2.87;71.79;102872.50;5075626;27;45521;-64
2022/01/26 03:07:05;;;;;;;;;35.50;27.75;;;;;2.87;71.66;102868.97;5057274;28;45406;-61
2022/01/26 03:09:45;;;;;;;;;31.75;21.75;;;;;2.93;71.92;102869.91;5076121;28;45422;-62
2022/01/26 03:12:16;;;;;;;;;37.00;24.00;;;;;2.93;71.32;102866.41;5077265;27;45365;-64
2022/01/26 03:14:53;;;;;;;;;29.00;21.75;;;;;2.69;72.02;102845.97;5077273;28;45345;-62
2022/01/26 03:17:50;;;;;;;;;32.75;27.75;;;;;2.65;72.47;102847.69;5067110;28;45625;-61
2022/01/26 03:20:16;;;;;;;;;37.00;28.00;;;;;2.78;72.87;102859.22;5077644;27;45219;-65
2022/01/26 03:38:05;;;;;;;;;35.75;31.50;;;;;3.16;70.51;102833.38;5077065;27;45467;-66
2022/01/26 03:40:34;;;;;;;;;32.50;26.25;;;;;3.24;70.68;102839.56;5076070;27;45400;-60
2022/01/26 03:43:00;;;;;;;;;28.25;25.50;;;;;3.33;70.13;102843.19;5076915;27;45244;-62
2022/01/26 03:45:26;;;;;;;;;46.00;32.25;;;;;3.36;70.25;102849.34;5075461;28;45237;-61
2022/01/26 03:47:53;;;;;;;;;41.75;33.75;;;;;3.37;70.21;102848.47;5077515;28;46265;-63
2022/01/26 03:50:19;;;;;;;;;39.50;36.50;;;;;3.38;70.17;102846.72;5076079;27;45460;-58
2022/01/26 03:52:44;;;;;;;;;40.00;29.00;;;;;3.32;69.61;102847.56;5076922;28;45813;-60
2022/01/26 03:55:10;;;;;;;;;43.00;34.25;;;;;3.34;69.82;102861.59;5057710;28;45351;-62
2022/01/26 03:57:35;;;;;;;;;37.25;32.25;;;;;3.32;70.31;102841.41;5069357;27;47002;-60
2022/01/26 04:00:01;;;;;;;;;43.50;37.00;;;;;3.32;70.02;102851.94;5076796;28;45531;-65
2022/01/26 04:02:26;;;;;;;;;56.50;37.00;;;;;3.45;70.03;102854.69;5074943;28;46726;-64
2022/01/26 04:04:57;;;;;;;;;43.75;38.00;;;;;3.42;70.08;102841.53;5076712;27;45473;-62
2022/01/26 04:07:23;;;;;;;;;39.75;34.50;;;;;3.51;69.32;102854.75;5075094;27;45571;-62
2022/01/26 04:09:48;;;;;;;;;44.50;36.00;;;;;3.55;69.30;102847.78;5076382;27;45912;-63
2022/01/26 04:12:14;;;;;;;;;37.50;28.00;;;;;3.54;68.95;102846.91;5076283;27;46283;-61
2022/01/26 04:14:41;;;;;;;;;48.25;39.25;;;;;3.48;69.09;102844.19;5076372;28;45357;-62
2022/01/26 04:17:08;;;;;;;;;48.75;37.50;;;;;3.45;69.21;102843.28;5075858;28;45466;-61
2022/01/26 04:19:36;;;;;;;;;44.50;39.25;;;;;3.52;69.58;102822.34;5076376;27;45305;-61
2022/01/26 04:24:38;;;;;;;;;60.75;42.50;;;;;3.51;68.53;102817.03;5075704;27;45495;-61
2022/01/26 04:27:18;;;;;;;;;42.25;36.50;;;;;3.56;68.98;102828.50;5076478;27;45310;-62
2022/01/26 04:29:44;;;;;;;;;51.25;45.50;;;;;3.64;68.75;102844.31;5064727;27;45505;-62
2022/01/26 04:32:12;;;;;;;;;45.50;36.75;;;;;3.69;68.89;102847.91;5067228;28;45417;-60
2022/01/26 04:34:38;;;;;;;;;54.25;41.25;;;;;3.70;68.52;102849.66;5074319;28;45405;-62
2022/01/26 04:37:14;;;;;;;;;37.25;28.50;;;;;3.67;68.45;102849.63;5075392;28;45295;-61
2022/01/26 04:39:49;;;;;;;;;48.00;42.75;;;;;3.56;68.36;102846.91;5073724;28;45915;-61
2022/01/26 04:42:23;;;;;;;;;57.75;41.75;;;;;3.57;68.17;102827.63;5074868;28;46166;-62
2022/01/26 04:44:56;;;;;;;;;55.00;42.00;;;;;3.69;68.08;102837.38;5074884;27;45176;-64
2022/01/26 04:47:21;;;;;;;;;64.00;44.75;;;;;3.74;67.88;102833.91;5076211;27;45269;-59
2022/01/26 04:49:47;;;;;;;;;55.75;45.50;;;;;3.75;67.59;102827.75;5076535;28;45648;-62
2022/01/26 04:52:12;;;;;;;;;51.50;47.00;;;;;3.79;67.50;102844.47;5076790;28;47378;-65
2022/01/26 04:54:38;;;;;;;;;53.00;44.25;;;;;3.70;67.36;102813.69;5078279;28;45563;-64
2022/01/26 04:57:03;;;;;;;;;54.00;41.75;;;;;3.85;67.74;102836.63;5079310;28;45256;-59
2022/01/26 04:59:29;;;;;;;;;62.00;40.00;;;;;3.88;67.60;102828.72;5079536;27;45684;-64
2022/01/26 05:01:54;;;;;;;;;47.75;43.50;;;;;3.90;67.25;102826.97;5076489;28;45948;-63
2022/01/26 05:04:20;;;;;;;;;55.75;43.50;;;;;3.78;66.32;102809.38;5079760;28;45344;-61
2022/01/26 05:06:45;;;;;;;;;39.25;36.00;;;;;3.81;66.68;102832.22;5079267;27;45369;-59
2022/01/26 05:09:10;;;;;;;;;56.50;46.75;;;;;3.84;66.92;102832.22;5079395;27;45526;-62
2022/01/26 05:11:39;;;;;;;;;43.25;40.25;;;;;3.88;67.14;102823.47;5079432;28;46094;-63
2022/01/26 05:14:06;;;;;;;;;57.75;47.25;;;;;3.94;66.48;102828.78;5078864;28;45266;-60
2022/01/26 05:16:31;;;;;;;;;56.50;44.00;;;;;3.96;67.05;102818.28;5078555;27;45255;-59
2022/01/26 05:18:57;;;;;;;;;63.75;46.00;;;;;3.97;66.95;102828.81;5075740;27;45536;-64
2022/01/26 05:21:25;;;;;;;;;52.25;44.00;;;;;3.88;65.87;102827.84;5077688;27;47736;-56
2022/01/26 05:23:50;;;;;;;;;52.50;33.50;;;;;3.83;66.28;102825.19;5078551;27;45478;-57
2022/01/26 05:26:16;;;;;;;;;57.75;45.25;;;;;3.81;66.56;102826.94;5077085;27;45504;-57
2022/01/26 05:28:42;;;;;;;;;62.00;46.75;;;;;3.84;66.11;102822.56;5079046;28;45468;-60
2022/01/26 05:31:07;;;;;;;;;48.25;42.00;;;;;3.86;66.17;102833.09;5078605;28;46244;-56
2022/01/26 05:33:32;;;;;;;;;53.25;43.25;;;;;3.94;66.03;102834.06;5078438;28;45727;-60
2022/01/26 05:35:58;;;;;;;;;47.75;43.25;;;;;3.95;66.17;102819.16;5078168;28;45482;-60
2022/01/26 05:38:23;;;;;;;;;53.75;45.00;;;;;3.93;65.73;102821.78;5079176;27;45494;-55
2022/01/26 05:40:50;;;;;;;;;65.25;43.25;;;;;3.89;65.84;102801.53;5078201;27;46236;-55
2022/01/26 05:43:16;;;;;;;;;61.50;47.00;;;;;3.96;65.95;102813.00;5075830;28;45374;-57
2022/01/26 05:45:47;;;;;;;;;65.75;50.75;;;;;3.99;66.62;102815.66;5078803;27;45372;-59
2022/01/26 05:48:13;;;;;;;;;59.00;45.25;;;;;4.06;66.19;102818.34;5078964;27;45256;-59
2022/01/26 05:50:48;;;;;;;;;58.75;44.50;;;;;4.05;66.00;102827.13;5078249;27;45724;-57
2022/01/26 05:53:16;;;;;;;;;47.00;44.25;;;;;3.97;65.53;102823.53;5069831;28;45527;-61
2022/01/26 05:55:41;;;;;;;;;60.50;46.00;;;;;3.76;65.54;102807.59;5077296;28;45547;-58
2022/01/26 05:58:07;;;;;;;;;64.50;50.50;;;;;3.69;66.25;102816.31;5074384;27;45713;-60
2022/01/26 06:00:32;;;;;;;;;56.75;48.25;;;;;3.72;66.91;102813.69;5077581;28;45904;-61
2022/01/26 06:02:58;;;;;;;;;65.25;51.50;;;;;3.76;66.31;102819.00;5072879;28;45421;-72
2022/01/26 06:05:23;;;;;;;;;64.75;48.50;;;;;3.73;66.51;102818.97;5079090;27;45552;-70
2022/01/26 06:07:49;;;;;;;;;55.00;46.75;;;;;3.76;66.20;102824.25;5078544;27;45651;-61
2022/01/26 06:10:14;;;;;;;;;52.25;43.00;;;;;3.73;66.19;102829.50;5076605;27;45933;-60
2022/01/26 06:12:39;;;;;;;;;56.75;45.75;;;;;3.81;66.44;102816.41;5078220;28;45478;-60
2022/01/26 06:15:05;;;;;;;;;58.50;44.00;;;;;3.88;66.39;102828.72;5077743;27;45471;-65
2022/01/26 06:17:31;;;;;;;;;64.50;47.25;;;;;3.83;66.39;102826.06;5081242;27;45831;-59
2022/01/26 06:19:56;;;;;;;;;63.25;47.25;;;;;3.92;66.31;102835.81;5085610;27;45357;-61
2022/01/26 06:22:22;;;;;;;;;71.75;47.75;;;;;3.96;65.65;102842.84;5098924;27;45308;-63
2022/01/26 06:24:47;;;;;;;;;63.00;49.75;;;;;3.95;66.47;102846.34;5086188;27;45517;-61
2022/01/26 06:27:13;;;;;;;;;61.75;49.25;;;;;3.91;66.17;102843.69;5077066;27;45600;-60
2022/01/26 06:29:38;;;;;;;;;55.50;45.25;;;;;3.74;66.36;102852.31;5077846;27;46019;-64
2022/01/26 06:32:05;;;;;;;;;73.75;52.25;;;;;3.74;66.70;102860.22;5106519;27;45337;-61
2022/01/26 06:34:31;;;;;;;;;55.75;45.25;;;;;3.85;66.84;102871.72;5057439;28;45445;-65
2022/01/26 06:36:57;;;;;;;;;59.00;44.75;;;;;3.94;66.59;102876.19;5067250;28;45591;-66
2022/01/26 06:39:23;;;;;;;;;67.50;50.50;;;;;3.94;66.59;102873.56;5057903;28;46082;-63
2022/01/26 06:41:52;;;;;;;;;66.50;52.00;;;;;3.98;66.60;102872.69;5058588;28;45246;-61
2022/01/26 06:44:27;;;;;;;;;58.75;39.00;;;;;3.90;66.19;102887.53;5057730;28;45511;-62
2022/01/26 06:49:37;;;;;;;;;62.00;50.00;;;;;3.97;66.10;102896.38;5077826;28;45539;-63
2022/01/26 06:52:02;;;;;;;;;62.50;47.25;;;;;3.96;66.44;102890.22;5063839;27;45488;-64
2022/01/26 06:54:28;;;;;;;;;67.50;49.00;;;;;4.05;66.53;102890.31;5074007;27;45589;-69
2022/01/26 06:56:53;;;;;;;;;65.75;50.00;;;;;4.06;66.24;102901.72;5079750;27;45579;-60
2022/01/26 06:59:21;;;;;;;;;66.25;53.00;;;;;4.08;66.04;102887.69;5065448;28;46076;-62
2022/01/26 07:01:47;;;;;;;;;65.25;47.75;;;;;4.06;65.94;102884.19;5057050;28;45251;-59
2022/01/26 07:04:12;;;;;;;;;75.50;53.75;;;;;4.08;65.78;102879.78;5065028;28;46011;-62
2022/01/26 07:06:38;;;;;;;;;68.25;52.25;;;;;4.12;66.06;102891.22;5064883;28;45598;-62
2022/01/26 07:09:03;;;;;;;;;67.50;48.50;;;;;4.15;65.98;102885.97;5064751;27;45518;-60
2022/01/26 07:11:29;;;;;;;;;73.00;56.00;;;;;4.17;66.26;102878.06;5081083;27;45509;-59
2022/01/26 07:13:58;;;;;;;;;64.75;49.50;;;;;4.20;66.14;102888.66;5068760;27;45365;-60
2022/01/26 07:21:51;;;;;;;;;65.25;52.25;;;;;4.12;66.14;102886.84;5056831;28;45387;-59
2022/01/26 07:24:17;;;;;;;;;70.00;52.00;;;;;4.13;66.30;102872.78;5078667;27;45458;-61
2022/01/26 07:26:43;;;;;;;;;68.50;51.50;;;;;4.23;65.89;102881.66;5065029;28;45337;-64
2022/01/26 07:29:14;;;;;;;;;68.00;51.00;;;;;4.26;65.67;102883.41;5063509;28;45758;-61
2022/01/26 07:31:46;;;;;;;;;72.25;48.00;;;;;4.23;65.29;102888.66;5057791;28;45484;-59
2022/01/26 07:34:13;;;;;;;;;61.25;50.00;;;;;4.22;65.78;102889.53;5078053;27;45492;-61
2022/01/26 07:36:39;;;;;;;;;65.75;52.00;;;;;4.27;66.21;102901.88;5056861;28;45727;-61
2022/01/26 07:39:09;;;;;;;;;70.50;52.00;;;;;4.18;65.65;102882.50;5056682;28;46321;-57
2022/01/26 07:41:34;;;;;;;;;65.75;48.25;;;;;3.99;65.81;102895.50;5056930;28;45388;-60
2022/01/26 07:44:00;;;;;;;;;65.25;46.50;;;;;3.96;65.68;102892.88;5056918;28;45284;-60
2022/01/26 07:46:27;;;;;;;;;51.00;42.75;;;;;3.89;65.94;102893.66;5060412;27;45606;-61
2022/01/26 07:48:53;;;;;;;;;51.00;43.00;;;;;3.96;66.55;102908.66;5094905;27;45518;-59
2022/01/26 07:51:18;;;;;;;;;64.00;50.00;;;;;4.03;66.56;102891.16;5069058;28;45539;-62
2022/01/26 07:53:45;;;;;;;;;73.00;57.25;;;;;4.12;65.95;102900.00;5072912;27;45412;-66
2022/01/26 07:56:10;;;;;;;;;61.75;50.25;;;;;4.17;66.23;102917.59;5076325;27;45508;-59
2022/01/26 07:58:35;;;;;;;;;57.00;46.25;;;;;4.18;65.53;102900.94;5074910;28;48109;-62
2022/01/26 08:01:01;;;;;;;;;54.75;45.50;;;;;4.25;65.96;102915.91;5073904;27;45724;-61
2022/01/26 08:03:33;;;;;;;;;65.50;50.50;;;;;4.28;66.11;102915.91;5111259;27;45559;-61
2022/01/26 08:05:59;;;;;;;;;62.75;49.75;;;;;4.27;65.58;102888.69;5068948;28;45560;-58
2022/01/26 08:08:26;;;;;;;;;65.00;46.25;;;;;4.31;66.39;102884.34;5057717;28;47101;-62
2022/01/26 08:10:52;;;;;;;;;62.75;44.50;;;;;4.36;65.80;102875.59;5081871;27;45671;-59
2022/01/26 08:13:17;;;;;;;;;49.75;40.50;;;;;4.35;66.10;102870.31;5068816;27;45469;-61
2022/01/26 08:15:43;;;;;;;;;63.75;51.25;;;;;4.24;65.65;102861.47;5055918;28;45366;-62
2022/01/26 08:18:08;;;;;;;;;67.00;50.00;;;;;4.36;65.22;102886.13;5060409;28;46146;-63
2022/01/26 08:20:34;;;;;;;;;56.75;50.00;;;;;4.37;65.60;102887.00;5072715;27;45545;-61
2022/01/26 08:22:59;;;;;;;;;69.25;52.50;;;;;4.39;66.05;102866.81;5074727;27;46785;-66
2022/01/26 08:25:26;;;;;;;;;62.00;47.25;;;;;4.49;65.46;102873.91;5067710;27;45627;-67
2022/01/26 08:27:57;;;;;;;;;59.00;43.00;;;;;4.36;65.75;102843.09;5082750;27;46437;-61
2022/01/26 08:30:23;;;;;;;;;52.25;39.00;;;;;4.48;65.99;102853.69;5076554;27;45553;-62
2022/01/26 08:32:49;;;;;;;;;64.75;52.00;;;;;4.53;65.57;102867.78;5076002;27;45432;-64
2022/01/26 08:35:14;;;;;;;;;52.50;46.00;;;;;4.67;66.01;102875.75;5074540;27;46316;-65
2022/01/26 08:37:41;;;;;;;;;64.75;51.25;;;;;4.70;65.88;102862.59;5105264;27;47117;-62
2022/01/26 08:40:06;;;;;;;;;65.75;48.25;;;;;4.70;65.29;102866.13;5067984;28;45477;-63
2022/01/26 08:42:32;;;;;;;;;63.25;50.25;;;;;4.70;66.15;102881.94;5064542;27;45510;-64
2022/01/26 08:44:58;;;;;;;;;63.25;49.25;;;;;4.75;66.30;102884.59;5064759;28;45620;-64
2022/01/26 08:47:23;;;;;;;;;63.25;50.75;;;;;4.81;65.54;102894.25;5057257;28;45353;-70
2022/01/26 08:49:49;;;;;;;;;67.75;51.25;;;;;4.83;65.64;102888.16;5060706;28;45432;-61
2022/01/26 08:52:14;;;;;;;;;62.00;50.00;;;;;4.88;64.92;102903.97;5053830;28;45318;-61
2022/01/26 08:54:40;;;;;;;;;70.75;52.50;;;;;4.89;64.83;102900.47;5058320;28;45659;-61
2022/01/26 08:57:05;;;;;;;;;62.75;50.00;;;;;4.93;64.62;102904.84;5056339;28;45715;-61
2022/01/26 08:59:31;;;;;;;;;66.00;47.25;;;;;4.89;65.42;102905.72;5059549;28;45490;-62
2022/01/26 09:01:57;;;;;;;;;70.00;55.50;;;;;4.79;65.27;102901.28;5069268;27;45585;-62
2022/01/26 09:04:22;;;;;;;;;71.25;53.75;;;;;4.82;65.90;102915.38;5075762;27;45547;-62
2022/01/26 09:06:54;;;;;;;;;80.50;60.50;;;;;4.89;65.60;102901.34;5059752;28;45735;-67
2022/01/26 09:09:22;;;;;;;;;70.00;53.50;;;;;4.85;64.77;102888.16;5061990;28;45497;-63
2022/01/26 09:11:49;;;;;;;;;66.25;51.25;;;;;4.90;65.18;102899.59;5055401;28;45476;-63
2022/01/26 09:14:21;;;;;;;;;65.75;52.75;;;;;4.99;64.36;102920.72;5054270;28;45514;-63
2022/01/26 09:16:51;;;;;;;;;77.00;55.00;;;;;4.97;65.03;102918.09;5102063;27;45434;-64
2022/01/26 09:19:30;;;;;;;;;64.25;50.00;;;;;5.07;65.04;102932.16;5061245;28;45365;-63
2022/01/26 09:22:00;;;;;;;;;62.75;51.75;;;;;5.11;64.98;102928.69;5057391;27;45460;-63
2022/01/26 09:24:30;;;;;;;;;61.00;47.75;;;;;4.93;65.19;102931.22;5058233;27;45569;-66
2022/01/26 09:26:56;;;;;;;;;52.00;45.25;;;;;4.92;65.41;102937.38;5062171;27;45480;-61
2022/01/26 09:29:21;;;;;;;;;63.75;49.75;;;;;4.89;65.51;102942.66;5074130;28;45302;-62
2022/01/26 09:31:47;;;;;;;;;65.00;49.75;;;;;4.99;64.60;102947.97;5077416;27;45472;-66
2022/01/26 09:34:18;;;;;;;;;67.25;51.50;;;;;5.01;65.27;102948.84;5063034;27;45247;-62
2022/01/26 09:36:44;;;;;;;;;59.00;45.50;;;;;5.08;65.44;102936.59;5057710;27;46135;-62
2022/01/26 09:39:10;;;;;;;;;56.50;46.25;;;;;5.14;65.31;102927.81;5063703;28;45492;-62
2022/01/26 09:41:37;;;;;;;;;66.50;52.50;;;;;5.23;65.05;102941.03;5076683;28;45349;-63
2022/01/26 09:44:06;;;;;;;;;60.25;47.75;;;;;5.26;65.47;102946.31;5069587;27;45554;-66
2022/01/26 09:46:36;;;;;;;;;65.25;51.50;;;;;5.18;64.22;102933.09;5074528;27;45434;-64
2022/01/26 09:49:01;;;;;;;;;66.50;49.75;;;;;5.20;64.91;102946.28;5077630;27;45490;-64
2022/01/26 09:51:28;;;;;;;;;66.25;49.75;;;;;5.24;64.23;102954.25;5067195;28;45430;-66
2022/01/26 09:54:06;;;;;;;;;62.25;49.25;;;;;5.19;64.15;102955.97;5059663;28;45588;-66
2022/01/26 09:56:32;;;;;;;;;64.00;49.75;;;;;5.22;64.69;102952.47;5068419;27;46049;-61
2022/01/26 09:58:58;;;;;;;;;46.50;43.00;;;;;5.33;64.33;102975.34;5075831;28;45401;-64
2022/01/26 10:01:24;;;;;;;;;66.25;45.50;;;;;5.36;64.24;102965.72;5077094;28;45516;-62
2022/01/26 10:03:51;;;;;;;;;68.00;50.75;;;;;5.36;64.49;102971.00;5062488;28;45570;-63
2022/01/26 10:06:28;;;;;;;;;72.75;53.50;;;;;5.44;65.37;102966.59;5060621;28;45482;-61
2022/01/26 10:09:28;;;;;;;;;53.25;44.25;;;;;5.31;64.52;102940.16;5077442;28;45748;-62
2022/01/26 10:17:29;;;;;;;;;67.25;48.75;;;;;5.37;65.71;102968.34;5096930;27;45327;-60
2022/01/26 10:20:00;;;;;;;;;48.50;40.00;;;;;5.41;64.52;102969.25;5089322;27;45555;-60
2022/01/26 10:22:34;;;;;;;;;63.25;49.50;;;;;5.37;64.50;102962.19;5078575;27;45434;-60
2022/01/26 10:25:14;;;;;;;;;50.75;41.25;;;;;5.36;65.36;102957.81;5085428;27;47327;-61
2022/01/26 10:27:48;;;;;;;;;70.50;53.00;;;;;5.43;65.65;102960.44;5058055;27;46183;-63
2022/01/26 10:30:16;;;;;;;;;65.75;48.25;;;;;5.45;65.71;102950.78;5078724;27;45422;-59
2022/01/26 10:32:45;;;;;;;;;60.75;45.75;;;;;5.46;65.42;102943.72;5073934;28;45392;-57
2022/01/26 10:35:12;;;;;;;;;62.50;47.00;;;;;5.46;64.84;102934.06;5107914;27;45404;-56
2022/01/26 10:37:50;;;;;;;;;60.00;47.75;;;;;5.47;64.92;102935.84;5076979;28;45997;-58
2022/01/26 10:40:20;;;;;;;;;64.75;49.50;;;;;5.50;65.81;102956.09;5077737;27;45365;-56
2022/01/26 10:42:55;;;;;;;;;63.00;52.25;;;;;5.37;65.52;102963.06;5075815;28;45578;-57
2022/01/26 10:45:57;;;;;;;;;62.00;41.25;;;;;5.44;65.53;102966.59;5073933;27;45534;-58
2022/01/26 10:48:43;;;;;;;;;66.25;48.50;;;;;5.45;65.01;102941.97;5075663;28;46297;-58
2022/01/26 10:51:35;;;;;;;;;64.00;48.00;;;;;5.45;65.96;102949.88;5077371;27;45519;-56
2022/01/26 10:54:11;;;;;;;;;64.00;52.75;;;;;5.42;65.82;102947.25;5110353;27;45402;-59
2022/01/26 10:56:37;;;;;;;;;65.25;51.75;;;;;5.44;65.19;102929.66;5077733;27;45282;-59
2022/01/26 10:59:03;;;;;;;;;68.75;51.75;;;;;5.51;66.07;102931.44;5075048;27;45910;-57
2022/01/26 11:01:29;;;;;;;;;66.75;48.00;;;;;5.49;65.55;102941.13;5077131;28;46067;-58
2022/01/26 11:03:55;;;;;;;;;75.25;56.00;;;;;5.50;65.49;102945.53;5075673;28;45381;-57
2022/01/26 11:06:21;;;;;;;;;59.50;46.50;;;;;5.49;65.29;102927.94;5075741;28;45392;-56
2022/01/26 11:08:48;;;;;;;;;68.25;52.25;;;;;5.46;65.15;102923.50;5076815;28;45959;-55
2022/01/26 11:11:24;;;;;;;;;67.75;54.00;;;;;5.42;65.69;102934.06;5076727;27;45495;-57
2022/01/26 11:13:50;;;;;;;;;67.75;51.00;;;;;5.43;65.88;102934.06;5085746;27;45532;-55
2022/01/26 11:16:20;;;;;;;;;67.75;51.00;;;;;5.48;66.39;102928.81;5078800;27;45496;-56
2022/01/26 11:18:54;;;;;;;;;67.50;46.00;;;;;5.51;66.42;102921.78;5083479;27;46192;-58
2022/01/26 11:21:34;;;;;;;;;69.50;50.00;;;;;5.55;66.07;102906.81;5075323;28;45837;-57
2022/01/26 11:24:20;;;;;;;;;57.00;47.00;;;;;5.53;65.80;102905.94;5056165;27;45462;-58
2022/01/26 11:26:49;;;;;;;;;47.00;40.75;;;;;5.55;65.73;102906.81;5055300;28;45321;-57
2022/01/26 11:29:22;;;;;;;;;63.25;48.75;;;;;5.51;66.22;102895.38;5071571;28;46323;-55
2022/01/26 11:31:59;;;;;;;;;59.50;48.75;;;;;5.53;66.03;102908.56;5060082;27;45255;-56
2022/01/26 11:34:26;;;;;;;;;65.00;51.50;;;;;5.51;66.66;102903.28;5094225;27;45366;-58
2022/01/26 11:36:52;;;;;;;;;77.50;54.50;;;;;5.51;66.62;102899.78;5096813;27;45624;-60
2022/01/26 11:42:27;;;;;;;;;60.00;44.00;;;;;5.62;65.63;102900.69;5056223;28;45528;-58
2022/01/26 11:45:08;;;;;;;;;69.25;52.75;;;;;5.66;65.66;102893.63;5056373;28;45307;-56
2022/01/26 11:47:37;;;;;;;;;50.25;45.00;;;;;5.72;66.32;102888.34;5054967;28;45402;-57
2022/01/26 11:50:05;;;;;;;;;60.00;46.25;;;;;5.73;65.38;102874.25;5057439;28;46506;-57
2022/01/26 11:52:35;;;;;;;;;54.00;44.75;;;;;5.76;65.52;102875.16;5071487;28;45395;-62
2022/01/26 11:55:03;;;;;;;;;62.25;48.75;;;;;5.76;65.68;102869.00;5055313;28;45388;-62
2022/01/26 11:57:54;;;;;;;;;63.50;48.75;;;;;5.77;65.32;102861.09;5078332;27;45758;-53
2022/01/26 12:00:41;;;;;;;;;68.50;52.50;;;;;5.83;65.93;102855.78;5074878;28;46211;-60
2022/01/26 12:03:18;;;;;;;;;71.00;53.50;;;;;5.88;65.66;102847.88;5072373;28;45428;-64
2022/01/26 12:05:45;;;;;;;;;64.75;53.00;;;;;5.95;65.52;102854.06;5066386;28;45537;-60
2022/01/26 12:08:11;;;;;;;;;57.50;45.50;;;;;5.98;65.33;102846.13;5066194;28;45527;-59
2022/01/26 12:10:38;;;;;;;;;57.00;46.50;;;;;5.98;65.68;102838.19;5065432;28;46634;-59
2022/01/26 12:13:16;;;;;;;;;57.50;47.75;;;;;6.02;65.26;102840.84;5055739;28;45460;-57
2022/01/26 12:15:55;;;;;;;;;60.75;44.50;;;;;6.06;64.48;102833.78;5056249;28;45535;-59
2022/01/26 12:18:32;;;;;;;;;57.50;48.25;;;;;6.07;65.13;102854.03;5059373;27;45353;-64
2022/01/26 12:35:32;;;;;;;;;66.00;50.00;;;;;6.19;64.14;102838.19;5059725;27;45557;-60
2022/01/26 12:38:09;;;;;;;;;67.00;49.00;;;;;6.21;64.88;102841.69;5072321;28;45792;-73
2022/01/26 12:43:43;;;;;;;;;53.25;45.25;;;;;6.14;64.96;102851.41;5070971;28;45769;-59
2022/01/26 12:46:11;;;;;;;;;53.00;43.00;;;;;6.14;64.51;102855.81;5068824;28;45369;-61
2022/01/26 12:48:40;;;;;;;;;65.75;45.25;;;;;6.12;65.10;102850.53;5059180;28;45519;-56
2022/01/26 12:51:08;;;;;;;;;67.25;49.75;;;;;6.07;64.96;102841.72;5070179;28;45846;-54
2022/01/26 12:53:38;;;;;;;;;67.50;52.75;;;;;6.07;64.96;102857.56;5070099;28;46194;-60
2022/01/26 12:56:10;;;;;;;;;71.00;50.00;;;;;5.95;65.01;102839.09;5066841;27;45593;-57
2022/01/26 12:58:38;;;;;;;;;59.75;45.50;;;;;6.02;65.07;102845.25;5081574;27;45712;-60
2022/01/26 13:01:09;;;;;;;;;45.25;43.75;;;;;6.07;65.56;102847.00;5075727;27;45872;-60
2022/01/26 13:03:39;;;;;;;;;70.25;52.75;;;;;6.14;64.87;102842.59;5075583;28;45512;-63
2022/01/26 13:06:13;;;;;;;;;56.75;45.25;;;;;6.18;64.85;102836.41;5075711;27;45528;-59
2022/01/26 13:08:43;;;;;;;;;72.00;52.00;;;;;6.09;64.76;102804.72;5073066;28;45565;-60
2022/01/26 13:11:08;;;;;;;;;59.75;49.00;;;;;6.23;65.22;102821.41;5075488;27;45784;-60
2022/01/26 13:13:34;;;;;;;;;68.75;53.50;;;;;6.17;64.50;102813.53;5084833;27;46218;-59
2022/01/26 13:16:11;;;;;;;;;60.50;45.25;;;;;6.21;64.06;102809.97;5078682;28;45268;-60
2022/01/26 13:26:49;;;;;;;;;53.75;42.50;;;;;5.98;64.94;102822.34;5036107;28;45271;-56
2022/01/26 13:37:23;;;;;;;;;57.00;46.75;;;;;5.99;64.67;102830.31;5077744;28;45396;-59
2022/01/26 13:42:54;;;;;;;;;56.25;42.25;;;;;5.98;64.22;102823.22;5076611;27;45425;-60
2022/01/26 13:45:43;;;;;;;;;50.50;35.25;;;;;5.96;64.29;102825.00;5071716;28;45490;-65
2022/01/26 14:00:40;;;;;;;;;48.25;44.00;;;;;5.82;64.17;102824.97;5076748;27;45498;-65